sensor_id;sensor_type;location;lat;lon;timestamp;pressure;altitude;pressure_sealevel;temperature;humidity
20228;BME280;12195;55.790;37.572;2022-07-05T00:00:05;99590.16;;;24.08;46.06
20228;BME280;12195;55.790;37.572;2022-07-05T00:02:39;99600.57;;;24.03;46.13
20228;BME280;12195;55.790;37.572;2022-07-05T00:05:11;99606.42;;;24.06;46.13
20228;BME280;12195;55.790;37.572;2022-07-05T00:07:43;99603.09;;;24.04;46.10
20228;BME280;12195;55.790;37.572;2022-07-05T00:10:16;99597.89;;;24.03;46.10
20228;BME280;12195;55.790;37.572;2022-07-05T00:12:48;99602.23;;;24.04;46.00
20228;BME280;12195;55.790;37.572;2022-07-05T00:15:20;99612.63;;;24.07;46.13
20228;BME280;12195;55.790;37.572;2022-07-05T00:17:52;99611.28;;;24.11;45.78
20228;BME280;12195;55.790;37.572;2022-07-05T00:20:25;99609.62;;;24.10;46.01
20228;BME280;12195;55.790;37.572;2022-07-05T00:22:57;99605.61;;;24.06;45.96
20228;BME280;12195;55.790;37.572;2022-07-05T00:25:29;99610.98;;;23.98;46.29
20228;BME280;12195;55.790;37.572;2022-07-05T00:28:01;99611.66;;;23.92;46.48
20228;BME280;12195;55.790;37.572;2022-07-05T00:30:34;99619.02;;;23.82;46.81
20228;BME280;12195;55.790;37.572;2022-07-05T00:33:07;99607.13;;;23.76;46.62
20228;BME280;12195;55.790;37.572;2022-07-05T00:35:39;99610.98;;;23.74;46.53
20228;BME280;12195;55.790;37.572;2022-07-05T00:38:11;99610.82;;;23.75;46.50
20228;BME280;12195;55.790;37.572;2022-07-05T00:40:43;99615.00;;;23.78;46.64
20228;BME280;12195;55.790;37.572;2022-07-05T00:43:15;99611.83;;;23.82;46.40
20228;BME280;12195;55.790;37.572;2022-07-05T00:45:48;99607.45;;;23.81;46.37
20228;BME280;12195;55.790;37.572;2022-07-05T00:48:20;99616.84;;;23.77;46.60
20228;BME280;12195;55.790;37.572;2022-07-05T00:50:52;99615.66;;;23.72;46.69
20228;BME280;12195;55.790;37.572;2022-07-05T00:53:24;99615.34;;;23.67;46.89
20228;BME280;12195;55.790;37.572;2022-07-05T00:55:57;99620.70;;;23.67;46.75
20228;BME280;12195;55.790;37.572;2022-07-05T00:58:29;99619.03;;;23.66;46.75
20228;BME280;12195;55.790;37.572;2022-07-05T01:01:03;99619.03;;;23.66;47.00
20228;BME280;12195;55.790;37.572;2022-07-05T01:03:36;99626.59;;;23.70;46.68
20228;BME280;12195;55.790;37.572;2022-07-05T01:06:10;99623.55;;;23.73;46.44
20228;BME280;12195;55.790;37.572;2022-07-05T01:08:44;99623.38;;;23.75;46.53
20228;BME280;12195;55.790;37.572;2022-07-05T01:11:17;99622.89;;;23.79;46.53
20228;BME280;12195;55.790;37.572;2022-07-05T01:13:48;99635.80;;;23.92;45.08
20228;BME280;12195;55.790;37.572;2022-07-05T01:16:21;99626.06;;;23.75;46.70
20228;BME280;12195;55.790;37.572;2022-07-05T01:18:54;99621.39;;;23.69;46.83
20228;BME280;12195;55.790;37.572;2022-07-05T01:21:27;99620.87;;;23.65;47.01
20228;BME280;12195;55.790;37.572;2022-07-05T01:24:00;99624.73;;;23.63;47.16
20228;BME280;12195;55.790;37.572;2022-07-05T01:26:32;99630.78;;;23.65;46.93
20228;BME280;12195;55.790;37.572;2022-07-05T01:29:06;99625.91;;;23.68;46.76
20228;BME280;12195;55.790;37.572;2022-07-05T01:31:40;99621.03;;;23.72;46.73
20228;BME280;12195;55.790;37.572;2022-07-05T01:34:12;99623.55;;;23.73;46.68
20228;BME280;12195;55.790;37.572;2022-07-05T01:36:44;99619.88;;;23.74;46.79
20228;BME280;12195;55.790;37.572;2022-07-05T01:39:16;99623.38;;;23.75;46.65
20228;BME280;12195;55.790;37.572;2022-07-05T01:41:48;99618.87;;;23.75;46.72
20228;BME280;12195;55.790;37.572;2022-07-05T01:44:21;99625.05;;;23.76;47.30
20228;BME280;12195;55.790;37.572;2022-07-05T01:46:55;99617.00;;;23.76;47.02
20228;BME280;12195;55.790;37.572;2022-07-05T01:49:28;99619.19;;;23.80;47.51
20228;BME280;12195;55.790;37.572;2022-07-05T01:52:07;99626.74;;;23.85;47.18
20228;BME280;12195;55.790;37.572;2022-07-05T01:54:37;99625.06;;;23.92;46.88
20228;BME280;12195;55.790;37.572;2022-07-05T01:57:11;99619.03;;;23.98;46.48
20228;BME280;12195;55.790;37.572;2022-07-05T01:59:43;99620.69;;;24.07;45.99
20228;BME280;12195;55.790;37.572;2022-07-05T02:02:15;99619.66;;;24.16;45.76
20228;BME280;12195;55.790;37.572;2022-07-05T02:04:49;99610.93;;;24.22;45.55
20228;BME280;12195;55.790;37.572;2022-07-05T02:07:22;99608.05;;;24.31;45.60
20228;BME280;12195;55.790;37.572;2022-07-05T02:09:54;99609.86;;;24.39;45.49
20228;BME280;12195;55.790;37.572;2022-07-05T02:12:26;99603.30;;;24.41;45.72
20228;BME280;12195;55.790;37.572;2022-07-05T02:14:59;99615.84;;;24.49;45.02
20228;BME280;12195;55.790;37.572;2022-07-05T02:17:31;99615.17;;;24.55;44.81
20228;BME280;12195;55.790;37.572;2022-07-05T02:20:04;99619.69;;;24.62;44.67
20228;BME280;12195;55.790;37.572;2022-07-05T02:22:37;99612.78;;;24.68;44.72
20228;BME280;12195;55.790;37.572;2022-07-05T02:25:09;99616.45;;;24.75;44.56
20228;BME280;12195;55.790;37.572;2022-07-05T02:27:42;99617.58;;;24.80;44.55
20228;BME280;12195;55.790;37.572;2022-07-05T02:30:15;99611.34;;;24.88;44.00
20228;BME280;12195;55.790;37.572;2022-07-05T02:32:47;99620.37;;;24.95;43.73
20228;BME280;12195;55.790;37.572;2022-07-05T02:35:20;99621.31;;;25.02;43.22
20228;BME280;12195;55.790;37.572;2022-07-05T02:37:52;99610.86;;;25.07;43.43
20228;BME280;12195;55.790;37.572;2022-07-05T02:40:24;99606.80;;;25.11;43.40
20228;BME280;12195;55.790;37.572;2022-07-05T02:42:56;99617.38;;;25.13;43.40
20228;BME280;12195;55.790;37.572;2022-07-05T02:45:30;99612.51;;;25.16;43.26
20228;BME280;12195;55.790;37.572;2022-07-05T02:48:02;99615.76;;;25.34;42.27
20228;BME280;12195;55.790;37.572;2022-07-05T02:50:35;99614.64;;;25.21;42.78
20228;BME280;12195;55.790;37.572;2022-07-05T02:53:07;99616.52;;;25.20;42.78
20228;BME280;12195;55.790;37.572;2022-07-05T02:55:40;99620.52;;;25.24;42.69
20228;BME280;12195;55.790;37.572;2022-07-05T02:58:13;99613.95;;;25.27;42.87
20228;BME280;12195;55.790;37.572;2022-07-05T03:00:48;99616.49;;;25.28;42.75
20228;BME280;12195;55.790;37.572;2022-07-05T03:03:22;99617.81;;;25.32;42.89
20228;BME280;12195;55.790;37.572;2022-07-05T03:05:55;99619.13;;;25.36;42.71
20228;BME280;12195;55.790;37.572;2022-07-05T03:08:28;99623.30;;;25.39;42.96
20228;BME280;12195;55.790;37.572;2022-07-05T03:11:00;99623.94;;;25.41;43.08
20228;BME280;12195;55.790;37.572;2022-07-05T03:13:33;99629.44;;;25.47;43.16
20228;BME280;12195;55.790;37.572;2022-07-05T03:16:05;99624.55;;;25.51;43.06
20228;BME280;12195;55.790;37.572;2022-07-05T03:18:38;99623.81;;;25.57;42.72
20228;BME280;12195;55.790;37.572;2022-07-05T03:21:10;99625.41;;;25.66;42.75
20228;BME280;12195;55.790;37.572;2022-07-05T03:23:43;99633.77;;;25.71;42.66
20228;BME280;12195;55.790;37.572;2022-07-05T03:26:16;99631.22;;;25.77;42.57
20228;BME280;12195;55.790;37.572;2022-07-05T03:28:50;99628.14;;;25.80;42.75
20228;BME280;12195;55.790;37.572;2022-07-05T03:31:22;99631.78;;;25.87;42.23
20228;BME280;12195;55.790;37.572;2022-07-05T03:33:55;99629.55;;;25.91;42.25
20228;BME280;12195;55.790;37.572;2022-07-05T03:36:27;99635.07;;;25.97;42.06
20228;BME280;12195;55.790;37.572;2022-07-05T03:39:01;99637.22;;;26.02;42.09
20228;BME280;12195;55.790;37.572;2022-07-05T03:41:34;99636.30;;;26.09;41.61
20228;BME280;12195;55.790;37.572;2022-07-05T03:44:07;99631.41;;;26.13;41.34
20228;BME280;12195;55.790;37.572;2022-07-05T03:46:39;99638.55;;;26.20;40.90
20228;BME280;12195;55.790;37.572;2022-07-05T03:49:13;99637.83;;;26.26;40.81
20228;BME280;12195;55.790;37.572;2022-07-05T03:51:46;99643.48;;;26.31;40.85
20228;BME280;12195;55.790;37.572;2022-07-05T03:54:18;99643.76;;;26.36;40.61
20228;BME280;12195;55.790;37.572;2022-07-05T03:56:51;99650.63;;;26.39;40.53
20228;BME280;12195;55.790;37.572;2022-07-05T03:59:23;99649.05;;;26.44;40.44
20228;BME280;12195;55.790;37.572;2022-07-05T04:01:56;99652.20;;;26.48;40.50
20228;BME280;12195;55.790;37.572;2022-07-05T04:04:29;99653.69;;;26.50;40.63
20228;BME280;12195;55.790;37.572;2022-07-05T04:07:01;99652.29;;;26.54;40.58
20228;BME280;12195;55.790;37.572;2022-07-05T04:09:35;99657.61;;;26.62;40.21
20228;BME280;12195;55.790;37.572;2022-07-05T04:12:08;99657.91;;;26.67;40.05
20228;BME280;12195;55.790;37.572;2022-07-05T04:14:41;99653.79;;;26.71;39.89
20228;BME280;12195;55.790;37.572;2022-07-05T04:17:13;99658.45;;;26.77;39.64
20228;BME280;12195;55.790;37.572;2022-07-05T04:19:45;99660.77;;;26.80;39.70
20228;BME280;12195;55.790;37.572;2022-07-05T04:22:18;99657.68;;;26.83;39.85
20228;BME280;12195;55.790;37.572;2022-07-05T04:24:50;99655.73;;;26.92;39.75
20228;BME280;12195;55.790;37.572;2022-07-05T04:27:40;99647.72;;;26.98;39.47
20228;BME280;12195;55.790;37.572;2022-07-05T04:30:13;99655.25;;;27.03;39.59
20228;BME280;12195;55.790;37.572;2022-07-05T04:32:46;99654.29;;;27.10;39.70
20228;BME280;12195;55.790;37.572;2022-07-05T04:35:19;99652.52;;;27.17;39.72
20228;BME280;12195;55.790;37.572;2022-07-05T04:37:52;99649.07;;;27.23;39.38
20228;BME280;12195;55.790;37.572;2022-07-05T04:40:25;99652.69;;;27.30;39.32
20228;BME280;12195;55.790;37.572;2022-07-05T04:42:57;99657.11;;;27.38;39.40
20228;BME280;12195;55.790;37.572;2022-07-05T04:45:29;99657.17;;;27.44;39.02
20228;BME280;12195;55.790;37.572;2022-07-05T04:48:02;99643.55;;;27.52;39.10
20228;BME280;12195;55.790;37.572;2022-07-05T04:50:35;99653.19;;;27.61;38.44
20228;BME280;12195;55.790;37.572;2022-07-05T04:53:08;99657.45;;;27.70;38.48
20228;BME280;12195;55.790;37.572;2022-07-05T04:55:40;99654.80;;;27.77;38.07
20228;BME280;12195;55.790;37.572;2022-07-05T04:58:13;99657.21;;;27.86;38.01
20228;BME280;12195;55.790;37.572;2022-07-05T05:00:45;99647.28;;;27.93;37.49
20228;BME280;12195;55.790;37.572;2022-07-05T05:03:18;99651.06;;;27.99;37.06
20228;BME280;12195;55.790;37.572;2022-07-05T05:05:51;99645.09;;;28.03;37.28
20228;BME280;12195;55.790;37.572;2022-07-05T05:08:23;99646.98;;;28.09;37.03
20228;BME280;12195;55.790;37.572;2022-07-05T05:10:55;99650.77;;;28.15;36.89
20228;BME280;12195;55.790;37.572;2022-07-05T05:13:28;99652.48;;;28.22;36.63
20228;BME280;12195;55.790;37.572;2022-07-05T05:16:01;99642.17;;;28.32;36.93
20228;BME280;12195;55.790;37.572;2022-07-05T05:18:34;99653.02;;;28.39;36.75
20228;BME280;12195;55.790;37.572;2022-07-05T05:21:08;99650.39;;;28.45;36.27
20228;BME280;12195;55.790;37.572;2022-07-05T05:23:40;99642.51;;;28.50;36.18
20228;BME280;12195;55.790;37.572;2022-07-05T05:26:12;99639.02;;;28.56;36.34
20228;BME280;12195;55.790;37.572;2022-07-05T05:28:45;99639.84;;;28.57;36.10
20228;BME280;12195;55.790;37.572;2022-07-05T05:31:18;99646.31;;;28.62;36.17
20228;BME280;12195;55.790;37.572;2022-07-05T05:33:50;99644.30;;;28.71;36.28
20228;BME280;12195;55.790;37.572;2022-07-05T05:36:23;99652.85;;;28.81;36.02
20228;BME280;12195;55.790;37.572;2022-07-05T05:38:55;99648.52;;;28.86;35.83
20228;BME280;12195;55.790;37.572;2022-07-05T05:41:27;99649.60;;;28.98;35.73
20228;BME280;12195;55.790;37.572;2022-07-05T05:44:00;99648.22;;;29.09;35.86
20228;BME280;12195;55.790;37.572;2022-07-05T05:46:33;99648.88;;;29.18;34.90
20228;BME280;12195;55.790;37.572;2022-07-05T05:49:06;99647.65;;;29.27;34.80
20228;BME280;12195;55.790;37.572;2022-07-05T05:51:38;99640.79;;;29.31;34.87
20228;BME280;12195;55.790;37.572;2022-07-05T05:54:11;99641.62;;;29.38;34.99
20228;BME280;12195;55.790;37.572;2022-07-05T05:56:43;99636.66;;;29.48;35.01
20228;BME280;12195;55.790;37.572;2022-07-05T05:59:16;99640.22;;;29.55;34.83
20228;BME280;12195;55.790;37.572;2022-07-05T06:01:48;99637.75;;;29.60;34.23
20228;BME280;12195;55.790;37.572;2022-07-05T06:04:20;99633.18;;;29.67;34.08
20228;BME280;12195;55.790;37.572;2022-07-05T06:06:53;99625.26;;;29.78;34.13
20228;BME280;12195;55.790;37.572;2022-07-05T06:09:25;99628.81;;;29.85;34.14
20228;BME280;12195;55.790;37.572;2022-07-05T06:11:57;99628.36;;;29.95;33.72
20228;BME280;12195;55.790;37.572;2022-07-05T06:14:30;99635.67;;;29.94;32.98
20228;BME280;12195;55.790;37.572;2022-07-05T06:17:02;99635.87;;;29.99;33.21
20228;BME280;12195;55.790;37.572;2022-07-05T06:19:35;99635.66;;;30.07;32.82
20228;BME280;12195;55.790;37.572;2022-07-05T06:22:07;99639.23;;;30.14;32.97
20228;BME280;12195;55.790;37.572;2022-07-05T06:24:39;99624.20;;;30.25;32.65
20228;BME280;12195;55.790;37.572;2022-07-05T06:27:11;99628.56;;;30.32;32.24
20228;BME280;12195;55.790;37.572;2022-07-05T06:29:43;99628.94;;;30.42;32.01
20228;BME280;12195;55.790;37.572;2022-07-05T06:32:16;99624.77;;;30.53;32.05
20228;BME280;12195;55.790;37.572;2022-07-05T06:34:49;99625.35;;;30.61;31.81
20228;BME280;12195;55.790;37.572;2022-07-05T06:37:23;99631.42;;;30.70;32.12
20228;BME280;12195;55.790;37.572;2022-07-05T06:39:54;99632.17;;;30.83;32.06
20228;BME280;12195;55.790;37.572;2022-07-05T06:42:27;99623.82;;;30.85;31.44
20228;BME280;12195;55.790;37.572;2022-07-05T06:44:59;99616.67;;;30.97;31.80
20228;BME280;12195;55.790;37.572;2022-07-05T06:47:33;99615.79;;;31.09;31.78
20228;BME280;12195;55.790;37.572;2022-07-05T06:50:05;99614.52;;;31.12;30.91
20228;BME280;12195;55.790;37.572;2022-07-05T06:52:38;99619.06;;;31.18;31.11
20228;BME280;12195;55.790;37.572;2022-07-05T06:55:10;99611.75;;;31.25;30.95
20228;BME280;12195;55.790;37.572;2022-07-05T06:57:43;99619.30;;;31.23;30.78
20228;BME280;12195;55.790;37.572;2022-07-05T07:00:18;99606.77;;;31.15;30.97
20228;BME280;12195;55.790;37.572;2022-07-05T07:02:53;99617.62;;;31.15;31.05
20228;BME280;12195;55.790;37.572;2022-07-05T07:05:28;99608.44;;;31.23;31.17
20228;BME280;12195;55.790;37.572;2022-07-05T07:08:02;99614.47;;;31.25;30.81
20228;BME280;12195;55.790;37.572;2022-07-05T07:10:51;99609.84;;;31.32;30.91
20228;BME280;12195;55.790;37.572;2022-07-05T07:13:24;99610.64;;;31.39;30.63
20228;BME280;12195;55.790;37.572;2022-07-05T07:15:56;99597.98;;;31.51;30.66
20228;BME280;12195;55.790;37.572;2022-07-05T07:18:30;99596.22;;;31.63;30.65
20228;BME280;12195;55.790;37.572;2022-07-05T07:21:04;99609.02;;;31.87;30.32
20228;BME280;12195;55.790;37.572;2022-07-05T07:23:39;99605.78;;;31.72;29.66
20228;BME280;12195;55.790;37.572;2022-07-05T07:26:11;99601.59;;;31.69;29.40
20228;BME280;12195;55.790;37.572;2022-07-05T07:28:44;99593.70;;;31.68;29.46
20228;BME280;12195;55.790;37.572;2022-07-05T07:31:16;99595.27;;;31.82;29.74
20228;BME280;12195;55.790;37.572;2022-07-05T07:33:49;99600.20;;;31.91;30.14
20228;BME280;12195;55.790;37.572;2022-07-05T07:36:21;99601.58;;;32.00;29.80
20228;BME280;12195;55.790;37.572;2022-07-05T07:38:53;99599.16;;;32.10;29.57
20228;BME280;12195;55.790;37.572;2022-07-05T07:41:25;99593.98;;;32.27;29.27
20228;BME280;12195;55.790;37.572;2022-07-05T07:43:58;99597.80;;;32.44;29.12
20228;BME280;12195;55.790;37.572;2022-07-05T07:46:30;99591.17;;;32.58;28.89
20228;BME280;12195;55.790;37.572;2022-07-05T07:49:02;99598.09;;;32.72;28.32
20228;BME280;12195;55.790;37.572;2022-07-05T07:51:35;99595.27;;;32.96;28.36
20228;BME280;12195;55.790;37.572;2022-07-05T07:54:07;99590.35;;;33.05;27.96
20228;BME280;12195;55.790;37.572;2022-07-05T07:56:39;99593.40;;;33.26;28.07
20228;BME280;12195;55.790;37.572;2022-07-05T07:59:12;99598.80;;;33.45;27.99
20228;BME280;12195;55.790;37.572;2022-07-05T08:01:44;99600.27;;;33.59;27.70
20228;BME280;12195;55.790;37.572;2022-07-05T08:04:17;99597.20;;;33.67;27.40
20228;BME280;12195;55.790;37.572;2022-07-05T08:06:49;99597.33;;;33.72;27.45
20228;BME280;12195;55.790;37.572;2022-07-05T08:09:22;99597.09;;;33.73;27.32
20228;BME280;12195;55.790;37.572;2022-07-05T08:11:55;99596.05;;;33.86;26.98
20228;BME280;12195;55.790;37.572;2022-07-05T08:14:26;99581.61;;;33.97;26.85
20228;BME280;12195;55.790;37.572;2022-07-05T08:16:58;99590.13;;;34.00;26.90
20228;BME280;12195;55.790;37.572;2022-07-05T08:19:31;99578.88;;;34.08;26.72
20228;BME280;12195;55.790;37.572;2022-07-05T08:22:21;99576.75;;;34.10;26.77
20228;BME280;12195;55.790;37.572;2022-07-05T08:24:54;99587.28;;;34.07;26.40
20228;BME280;12195;55.790;37.572;2022-07-05T08:27:26;99575.55;;;34.18;26.65
20228;BME280;12195;55.790;37.572;2022-07-05T08:29:58;99574.95;;;34.27;26.63
20228;BME280;12195;55.790;37.572;2022-07-05T08:32:32;99570.58;;;34.26;26.29
20228;BME280;12195;55.790;37.572;2022-07-05T08:35:05;99578.62;;;34.44;26.34
20228;BME280;12195;55.790;37.572;2022-07-05T08:37:37;99569.59;;;34.55;25.80
20228;BME280;12195;55.790;37.572;2022-07-05T08:40:10;99570.03;;;34.64;25.78
20228;BME280;12195;55.790;37.572;2022-07-05T08:42:43;99577.50;;;34.68;26.23
20228;BME280;12195;55.790;37.572;2022-07-05T08:45:16;99577.04;;;34.60;25.52
20228;BME280;12195;55.790;37.572;2022-07-05T08:47:49;99571.11;;;34.63;26.14
20228;BME280;12195;55.790;37.572;2022-07-05T08:50:23;99573.04;;;34.51;25.77
20228;BME280;12195;55.790;37.572;2022-07-05T08:52:59;99576.00;;;34.49;25.64
20228;BME280;12195;55.790;37.572;2022-07-05T08:55:32;99569.84;;;34.42;25.78
20228;BME280;12195;55.790;37.572;2022-07-05T08:58:05;99567.01;;;34.37;25.81
20228;BME280;12195;55.790;37.572;2022-07-05T09:00:39;99566.67;;;34.34;26.73
20228;BME280;12195;55.790;37.572;2022-07-05T09:03:11;99560.74;;;34.37;26.91
20228;BME280;12195;55.790;37.572;2022-07-05T09:05:43;99570.88;;;34.64;26.39
20228;BME280;12195;55.790;37.572;2022-07-05T09:08:17;99559.05;;;34.47;26.64
20228;BME280;12195;55.790;37.572;2022-07-05T09:10:50;99562.45;;;34.54;26.58
20228;BME280;12195;55.790;37.572;2022-07-05T09:13:22;99552.38;;;34.55;26.12
20228;BME280;12195;55.790;37.572;2022-07-05T09:15:55;99558.22;;;34.47;25.63
20228;BME280;12195;55.790;37.572;2022-07-05T09:18:49;99548.48;;;34.51;26.06
20228;BME280;12195;55.790;37.572;2022-07-05T09:21:26;99557.50;;;34.51;25.79
20228;BME280;12195;55.790;37.572;2022-07-05T09:24:08;99559.35;;;34.62;25.72
20228;BME280;12195;55.790;37.572;2022-07-05T09:26:44;99542.50;;;34.65;25.84
20228;BME280;12195;55.790;37.572;2022-07-05T09:29:21;99545.09;;;34.72;25.88
20228;BME280;12195;55.790;37.572;2022-07-05T09:31:56;99543.67;;;34.69;25.60
20228;BME280;12195;55.790;37.572;2022-07-05T09:34:29;99547.53;;;34.57;26.05
20228;BME280;12195;55.790;37.572;2022-07-05T09:37:03;99539.96;;;34.47;26.26
20228;BME280;12195;55.790;37.572;2022-07-05T09:39:37;99549.33;;;34.40;26.21
20228;BME280;12195;55.790;37.572;2022-07-05T09:42:21;99543.87;;;34.40;26.07
20228;BME280;12195;55.790;37.572;2022-07-05T09:44:58;99538.55;;;34.33;26.09
20228;BME280;12195;55.790;37.572;2022-07-05T09:47:30;99543.64;;;34.41;25.92
20228;BME280;12195;55.790;37.572;2022-07-05T09:50:03;99537.34;;;34.29;25.83
20228;BME280;12195;55.790;37.572;2022-07-05T09:52:40;99547.20;;;34.42;25.89
20228;BME280;12195;55.790;37.572;2022-07-05T09:55:13;99552.80;;;34.35;25.69
20228;BME280;12195;55.790;37.572;2022-07-05T09:57:51;99545.92;;;34.72;25.70
20228;BME280;12195;55.790;37.572;2022-07-05T10:00:24;99527.97;;;34.48;25.26
20228;BME280;12195;55.790;37.572;2022-07-05T10:02:57;99535.47;;;34.81;25.50
20228;BME280;12195;55.790;37.572;2022-07-05T10:05:32;99534.13;;;34.55;25.27
20228;BME280;12195;55.790;37.572;2022-07-05T10:08:05;99534.79;;;34.62;25.49
20228;BME280;12195;55.790;37.572;2022-07-05T10:10:38;99537.09;;;34.54;25.40
20228;BME280;12195;55.790;37.572;2022-07-05T10:13:12;99532.25;;;34.44;25.74
20228;BME280;12195;55.790;37.572;2022-07-05T10:15:46;99533.94;;;34.34;25.88
20228;BME280;12195;55.790;37.572;2022-07-05T10:18:24;99532.15;;;34.39;25.83
20228;BME280;12195;55.790;37.572;2022-07-05T10:21:00;99540.80;;;34.36;26.63
20228;BME280;12195;55.790;37.572;2022-07-05T10:23:35;99542.34;;;34.09;28.24
20228;BME280;12195;55.790;37.572;2022-07-05T10:26:11;99545.33;;;33.96;28.64
20228;BME280;12195;55.790;37.572;2022-07-05T10:28:53;99546.18;;;33.85;29.06
20228;BME280;12195;55.790;37.572;2022-07-05T10:31:24;99551.95;;;33.77;29.87
20228;BME280;12195;55.790;37.572;2022-07-05T10:34:00;99573.04;;;33.29;35.45
20228;BME280;12195;55.790;37.572;2022-07-05T10:36:34;99575.57;;;32.65;41.26
20228;BME280;12195;55.790;37.572;2022-07-05T10:39:07;99576.61;;;32.10;42.25
20228;BME280;12195;55.790;37.572;2022-07-05T10:41:40;99577.64;;;31.35;43.82
20228;BME280;12195;55.790;37.572;2022-07-05T10:44:25;99572.31;;;30.78;45.21
20228;BME280;12195;55.790;37.572;2022-07-05T10:46:48;99569.06;;;30.50;45.49
20228;BME280;12195;55.790;37.572;2022-07-05T10:49:21;99573.02;;;30.54;43.29
20228;BME280;12195;55.790;37.572;2022-07-05T10:51:55;99567.34;;;30.75;42.21
20228;BME280;12195;55.790;37.572;2022-07-05T10:54:28;99554.06;;;30.98;41.36
20228;BME280;12195;55.790;37.572;2022-07-05T10:57:22;99546.82;;;31.23;39.68
20228;BME280;12195;55.790;37.572;2022-07-05T11:00:11;99541.86;;;31.45;39.60
20228;BME280;12195;55.790;37.572;2022-07-05T11:02:44;99539.65;;;31.84;38.66
20228;BME280;12195;55.790;37.572;2022-07-05T11:05:16;99550.80;;;32.37;39.46
20228;BME280;12195;55.790;37.572;2022-07-05T11:08:05;99551.16;;;32.76;38.92
20228;BME280;12195;55.790;37.572;2022-07-05T11:10:34;99541.45;;;32.98;37.67
20228;BME280;12195;55.790;37.572;2022-07-05T11:13:37;99553.56;;;33.14;36.29
20228;BME280;12195;55.790;37.572;2022-07-05T11:16:28;99541.94;;;33.37;35.51
20228;BME280;12195;55.790;37.572;2022-07-05T11:19:12;99526.03;;;33.86;34.66
20228;BME280;12195;55.790;37.572;2022-07-05T11:22:03;99533.58;;;33.61;35.18
20228;BME280;12195;55.790;37.572;2022-07-05T11:24:37;99532.52;;;34.31;33.72
20228;BME280;12195;55.790;37.572;2022-07-05T11:27:10;99531.39;;;34.55;33.08
20228;BME280;12195;55.790;37.572;2022-07-05T11:29:48;99531.94;;;34.06;33.55
20228;BME280;12195;55.790;37.572;2022-07-05T11:35:14;99529.88;;;33.03;35.05
20228;BME280;12195;55.790;37.572;2022-07-05T11:38:09;99533.64;;;32.72;35.65
20228;BME280;12195;55.790;37.572;2022-07-05T11:40:41;99529.50;;;32.52;34.74
20228;BME280;12195;55.790;37.572;2022-07-05T11:43:15;99534.35;;;32.50;35.30
20228;BME280;12195;55.790;37.572;2022-07-05T11:46:03;99540.82;;;32.67;34.81
20228;BME280;12195;55.790;37.572;2022-07-05T11:48:26;99538.80;;;34.83;32.49
20228;BME280;12195;55.790;37.572;2022-07-05T11:51:13;99529.01;;;37.22;28.37
20228;BME280;12195;55.790;37.572;2022-07-05T11:53:46;99527.98;;;39.34;25.57
20228;BME280;12195;55.790;37.572;2022-07-05T11:56:20;99543.17;;;41.24;23.84
20228;BME280;12195;55.790;37.572;2022-07-05T11:58:52;99541.88;;;42.59;21.81
20228;BME280;12195;55.790;37.572;2022-07-05T12:01:24;99539.44;;;42.34;21.33
20228;BME280;12195;55.790;37.572;2022-07-05T12:03:57;99537.89;;;41.27;22.87
20228;BME280;12195;55.790;37.572;2022-07-05T12:06:30;99534.88;;;39.91;23.04
20228;BME280;12195;55.790;37.572;2022-07-05T12:09:04;99529.48;;;38.70;25.08
20228;BME280;12195;55.790;37.572;2022-07-05T12:11:36;99523.09;;;37.35;26.13
20228;BME280;12195;55.790;37.572;2022-07-05T12:14:25;99534.61;;;37.37;26.69
20228;BME280;12195;55.790;37.572;2022-07-05T12:17:17;99532.76;;;35.25;29.67
20228;BME280;12195;55.790;37.572;2022-07-05T12:19:52;99530.70;;;34.25;31.37
20228;BME280;12195;55.790;37.572;2022-07-05T12:22:33;99534.91;;;33.29;32.93
20228;BME280;12195;55.790;37.572;2022-07-05T12:25:07;99536.14;;;32.56;34.69
20228;BME280;12195;55.790;37.572;2022-07-05T12:27:42;99543.66;;;32.00;35.87
20228;BME280;12195;55.790;37.572;2022-07-05T12:30:15;99545.80;;;31.49;36.34
20228;BME280;12195;55.790;37.572;2022-07-05T12:33:07;99553.20;;;31.04;36.82
20228;BME280;12195;55.790;37.572;2022-07-05T12:35:43;99553.58;;;30.64;37.98
20228;BME280;12195;55.790;37.572;2022-07-05T12:38:19;99553.11;;;30.23;39.75
20228;BME280;12195;55.790;37.572;2022-07-05T12:40:59;99565.05;;;29.89;40.49
20228;BME280;12195;55.790;37.572;2022-07-05T12:43:31;99580.02;;;29.40;43.66
20228;BME280;12195;55.790;37.572;2022-07-05T12:46:05;99601.37;;;29.02;41.32
20228;BME280;12195;55.790;37.572;2022-07-05T12:48:39;99604.37;;;28.79;42.90
20228;BME280;12195;55.790;37.572;2022-07-05T12:51:12;99616.12;;;28.52;46.21
20228;BME280;12195;55.790;37.572;2022-07-05T12:53:49;99623.06;;;28.06;48.02
20228;BME280;12195;55.790;37.572;2022-07-05T12:56:39;99625.63;;;27.66;47.44
20228;BME280;12195;55.790;37.572;2022-07-05T12:59:32;99634.89;;;27.00;52.20
20228;BME280;12195;55.790;37.572;2022-07-05T13:02:05;99646.90;;;26.25;55.78
20228;BME280;12195;55.790;37.572;2022-07-05T13:04:37;99653.45;;;25.71;58.59
20228;BME280;12195;55.790;37.572;2022-07-05T13:07:15;99668.91;;;25.24;60.60
20228;BME280;12195;55.790;37.572;2022-07-05T13:09:49;99682.30;;;24.55;62.63
20228;BME280;12195;55.790;37.572;2022-07-05T13:12:23;99683.56;;;23.88;66.79
20228;BME280;12195;55.790;37.572;2022-07-05T13:14:56;99687.20;;;23.31;68.09
20228;BME280;12195;55.790;37.572;2022-07-05T13:17:30;99702.43;;;22.81;71.07
20228;BME280;12195;55.790;37.572;2022-07-05T13:20:03;99701.27;;;22.50;73.25
20228;BME280;12195;55.790;37.572;2022-07-05T13:22:36;99715.62;;;22.24;74.69
20228;BME280;12195;55.790;37.572;2022-07-05T13:25:08;99722.55;;;22.09;75.41
20228;BME280;12195;55.790;37.572;2022-07-05T13:27:42;99731.45;;;21.92;77.19